sensor_id;sensor_type;location;lat;lon;timestamp;P1;durP1;ratioP1;P2;durP2;ratioP2
36691;SDS011;22678;52.052;4.242;2023-06-22T00:01:46;18.20;;;9.85;;
36691;SDS011;22678;52.052;4.242;2023-06-22T00:04:11;17.75;;;11.15;;
36691;SDS011;22678;52.052;4.242;2023-06-22T00:06:36;16.98;;;10.43;;
36691;SDS011;22678;52.052;4.242;2023-06-22T00:09:01;17.10;;;9.63;;
36691;SDS011;22678;52.052;4.242;2023-06-22T00:11:28;21.42;;;11.80;;
36691;SDS011;22678;52.052;4.242;2023-06-22T00:13:53;14.07;;;9.25;;
36691;SDS011;22678;52.052;4.242;2023-06-22T00:16:18;16.25;;;10.80;;
36691;SDS011;22678;52.052;4.242;2023-06-22T00:18:43;21.85;;;12.10;;
36691;SDS011;22678;52.052;4.242;2023-06-22T00:21:12;21.13;;;11.63;;
36691;SDS011;22678;52.052;4.242;2023-06-22T00:23:37;26.13;;;15.10;;
36691;SDS011;22678;52.052;4.242;2023-06-22T00:26:02;33.20;;;19.92;;
36691;SDS011;22678;52.052;4.242;2023-06-22T00:28:28;20.08;;;14.48;;
36691;SDS011;22678;52.052;4.242;2023-06-22T00:30:54;19.15;;;10.95;;
36691;SDS011;22678;52.052;4.242;2023-06-22T00:33:19;18.80;;;11.45;;
36691;SDS011;22678;52.052;4.242;2023-06-22T00:35:44;21.90;;;12.05;;
36691;SDS011;22678;52.052;4.242;2023-06-22T00:38:10;17.73;;;11.38;;
36691;SDS011;22678;52.052;4.242;2023-06-22T00:40:36;19.23;;;11.32;;
36691;SDS011;22678;52.052;4.242;2023-06-22T00:43:01;18.08;;;10.70;;
36691;SDS011;22678;52.052;4.242;2023-06-22T00:45:27;17.85;;;11.23;;
36691;SDS011;22678;52.052;4.242;2023-06-22T00:47:53;16.08;;;10.85;;
36691;SDS011;22678;52.052;4.242;2023-06-22T00:50:24;31.45;;;18.40;;
36691;SDS011;22678;52.052;4.242;2023-06-22T00:52:52;32.40;;;20.98;;
36691;SDS011;22678;52.052;4.242;2023-06-22T00:55:21;21.33;;;13.55;;
36691;SDS011;22678;52.052;4.242;2023-06-22T00:57:47;24.92;;;11.95;;
36691;SDS011;22678;52.052;4.242;2023-06-22T01:00:13;18.48;;;13.05;;
36691;SDS011;22678;52.052;4.242;2023-06-22T01:02:40;17.98;;;11.10;;
36691;SDS011;22678;52.052;4.242;2023-06-22T01:05:06;18.92;;;11.60;;
36691;SDS011;22678;52.052;4.242;2023-06-22T01:07:35;17.40;;;11.50;;
36691;SDS011;22678;52.052;4.242;2023-06-22T01:10:18;20.65;;;12.18;;
36691;SDS011;22678;52.052;4.242;2023-06-22T01:12:45;22.60;;;13.02;;
36691;SDS011;22678;52.052;4.242;2023-06-22T01:17:58;49.13;;;28.38;;
36691;SDS011;22678;52.052;4.242;2023-06-22T01:20:25;31.75;;;18.60;;
36691;SDS011;22678;52.052;4.242;2023-06-22T01:23:11;22.73;;;13.82;;
36691;SDS011;22678;52.052;4.242;2023-06-22T01:26:05;19.88;;;13.18;;
36691;SDS011;22678;52.052;4.242;2023-06-22T01:31:08;24.25;;;13.43;;
36691;SDS011;22678;52.052;4.242;2023-06-22T01:33:37;18.15;;;11.82;;
36691;SDS011;22678;52.052;4.242;2023-06-22T01:36:04;21.80;;;11.43;;
36691;SDS011;22678;52.052;4.242;2023-06-22T01:38:30;18.40;;;11.35;;
36691;SDS011;22678;52.052;4.242;2023-06-22T01:41:00;17.98;;;11.18;;
36691;SDS011;22678;52.052;4.242;2023-06-22T01:43:26;20.65;;;12.20;;
36691;SDS011;22678;52.052;4.242;2023-06-22T01:45:53;20.27;;;12.35;;
36691;SDS011;22678;52.052;4.242;2023-06-22T01:48:19;20.73;;;12.27;;
36691;SDS011;22678;52.052;4.242;2023-06-22T01:50:46;18.45;;;11.57;;
36691;SDS011;22678;52.052;4.242;2023-06-22T01:53:12;18.98;;;11.43;;
36691;SDS011;22678;52.052;4.242;2023-06-22T01:55:37;19.15;;;13.07;;
36691;SDS011;22678;52.052;4.242;2023-06-22T01:58:02;22.08;;;12.50;;
36691;SDS011;22678;52.052;4.242;2023-06-22T02:00:28;18.52;;;12.35;;
36691;SDS011;22678;52.052;4.242;2023-06-22T02:03:19;22.40;;;12.52;;
36691;SDS011;22678;52.052;4.242;2023-06-22T02:05:47;16.67;;;11.00;;
36691;SDS011;22678;52.052;4.242;2023-06-22T02:08:21;20.45;;;13.82;;
36691;SDS011;22678;52.052;4.242;2023-06-22T02:10:49;25.75;;;15.02;;
36691;SDS011;22678;52.052;4.242;2023-06-22T02:13:19;25.13;;;15.07;;
36691;SDS011;22678;52.052;4.242;2023-06-22T02:15:45;20.95;;;11.50;;
36691;SDS011;22678;52.052;4.242;2023-06-22T02:18:12;19.98;;;13.32;;
36691;SDS011;22678;52.052;4.242;2023-06-22T02:20:38;19.67;;;12.32;;
36691;SDS011;22678;52.052;4.242;2023-06-22T02:23:04;18.48;;;12.48;;
36691;SDS011;22678;52.052;4.242;2023-06-22T02:25:31;19.85;;;11.23;;
36691;SDS011;22678;52.052;4.242;2023-06-22T02:27:57;21.00;;;11.82;;
36691;SDS011;22678;52.052;4.242;2023-06-22T02:30:22;20.42;;;13.20;;
36691;SDS011;22678;52.052;4.242;2023-06-22T02:32:47;18.27;;;11.60;;
36691;SDS011;22678;52.052;4.242;2023-06-22T02:35:13;19.88;;;12.30;;
36691;SDS011;22678;52.052;4.242;2023-06-22T02:37:39;20.92;;;12.40;;
36691;SDS011;22678;52.052;4.242;2023-06-22T02:40:06;18.23;;;11.27;;
36691;SDS011;22678;52.052;4.242;2023-06-22T02:42:34;18.27;;;11.85;;
36691;SDS011;22678;52.052;4.242;2023-06-22T02:44:59;20.58;;;12.05;;
36691;SDS011;22678;52.052;4.242;2023-06-22T02:47:25;15.93;;;10.52;;
36691;SDS011;22678;52.052;4.242;2023-06-22T02:49:51;25.38;;;15.00;;
36691;SDS011;22678;52.052;4.242;2023-06-22T02:52:16;27.75;;;17.13;;
36691;SDS011;22678;52.052;4.242;2023-06-22T02:54:41;26.30;;;14.98;;
36691;SDS011;22678;52.052;4.242;2023-06-22T02:57:07;18.67;;;11.70;;
36691;SDS011;22678;52.052;4.242;2023-06-22T02:59:41;18.70;;;11.15;;
36691;SDS011;22678;52.052;4.242;2023-06-22T03:02:07;17.48;;;10.18;;
36691;SDS011;22678;52.052;4.242;2023-06-22T03:04:34;14.40;;;10.07;;
36691;SDS011;22678;52.052;4.242;2023-06-22T03:06:59;20.33;;;12.65;;
36691;SDS011;22678;52.052;4.242;2023-06-22T03:09:26;15.25;;;10.63;;
36691;SDS011;22678;52.052;4.242;2023-06-22T03:11:53;19.98;;;13.48;;
36691;SDS011;22678;52.052;4.242;2023-06-22T03:14:18;35.50;;;21.25;;
36691;SDS011;22678;52.052;4.242;2023-06-22T03:16:44;46.88;;;27.05;;
36691;SDS011;22678;52.052;4.242;2023-06-22T03:19:09;20.35;;;13.60;;
36691;SDS011;22678;52.052;4.242;2023-06-22T03:21:35;19.92;;;13.18;;
36691;SDS011;22678;52.052;4.242;2023-06-22T03:24:03;19.92;;;12.30;;
36691;SDS011;22678;52.052;4.242;2023-06-22T03:26:29;15.60;;;10.40;;
36691;SDS011;22678;52.052;4.242;2023-06-22T03:28:55;16.85;;;12.30;;
36691;SDS011;22678;52.052;4.242;2023-06-22T03:31:20;17.33;;;10.95;;
36691;SDS011;22678;52.052;4.242;2023-06-22T03:33:46;18.30;;;13.77;;
36691;SDS011;22678;52.052;4.242;2023-06-22T03:36:13;16.75;;;10.45;;
36691;SDS011;22678;52.052;4.242;2023-06-22T03:38:39;15.20;;;9.73;;
36691;SDS011;22678;52.052;4.242;2023-06-22T03:41:04;21.02;;;13.93;;
36691;SDS011;22678;52.052;4.242;2023-06-22T03:43:29;20.65;;;12.07;;
36691;SDS011;22678;52.052;4.242;2023-06-22T03:45:55;19.75;;;13.20;;
36691;SDS011;22678;52.052;4.242;2023-06-22T03:48:20;21.77;;;12.77;;
36691;SDS011;22678;52.052;4.242;2023-06-22T03:50:45;18.48;;;10.85;;
36691;SDS011;22678;52.052;4.242;2023-06-22T03:53:11;17.20;;;11.05;;
36691;SDS011;22678;52.052;4.242;2023-06-22T03:55:36;19.40;;;11.68;;
36691;SDS011;22678;52.052;4.242;2023-06-22T03:58:02;17.33;;;11.48;;
36691;SDS011;22678;52.052;4.242;2023-06-22T04:00:30;18.15;;;10.82;;
36691;SDS011;22678;52.052;4.242;2023-06-22T04:02:59;18.50;;;11.82;;
36691;SDS011;22678;52.052;4.242;2023-06-22T04:05:24;21.60;;;10.88;;
36691;SDS011;22678;52.052;4.242;2023-06-22T04:07:49;20.60;;;10.65;;
36691;SDS011;22678;52.052;4.242;2023-06-22T04:10:15;23.58;;;12.90;;
36691;SDS011;22678;52.052;4.242;2023-06-22T04:12:40;17.90;;;10.63;;
36691;SDS011;22678;52.052;4.242;2023-06-22T04:15:06;16.98;;;11.00;;
36691;SDS011;22678;52.052;4.242;2023-06-22T04:17:31;19.13;;;12.60;;
36691;SDS011;22678;52.052;4.242;2023-06-22T04:19:57;23.02;;;12.55;;
36691;SDS011;22678;52.052;4.242;2023-06-22T04:22:22;21.85;;;14.27;;
36691;SDS011;22678;52.052;4.242;2023-06-22T04:24:47;19.83;;;12.10;;
36691;SDS011;22678;52.052;4.242;2023-06-22T04:27:12;18.70;;;12.30;;
36691;SDS011;22678;52.052;4.242;2023-06-22T04:29:38;22.02;;;13.05;;
36691;SDS011;22678;52.052;4.242;2023-06-22T04:32:08;21.98;;;13.20;;
36691;SDS011;22678;52.052;4.242;2023-06-22T04:34:34;21.67;;;14.30;;
36691;SDS011;22678;52.052;4.242;2023-06-22T04:36:59;19.67;;;12.05;;
36691;SDS011;22678;52.052;4.242;2023-06-22T04:39:24;20.38;;;14.40;;
36691;SDS011;22678;52.052;4.242;2023-06-22T04:41:51;24.70;;;14.85;;
36691;SDS011;22678;52.052;4.242;2023-06-22T04:44:18;22.52;;;13.32;;
36691;SDS011;22678;52.052;4.242;2023-06-22T04:46:50;18.45;;;11.85;;
36691;SDS011;22678;52.052;4.242;2023-06-22T04:49:19;20.60;;;13.43;;
36691;SDS011;22678;52.052;4.242;2023-06-22T04:51:45;19.45;;;12.48;;
36691;SDS011;22678;52.052;4.242;2023-06-22T04:54:11;20.60;;;13.13;;
36691;SDS011;22678;52.052;4.242;2023-06-22T04:56:36;20.80;;;11.88;;
36691;SDS011;22678;52.052;4.242;2023-06-22T04:59:02;20.52;;;12.65;;
36691;SDS011;22678;52.052;4.242;2023-06-22T05:01:28;22.55;;;14.43;;
36691;SDS011;22678;52.052;4.242;2023-06-22T05:03:56;42.45;;;15.48;;
36691;SDS011;22678;52.052;4.242;2023-06-22T05:06:22;20.73;;;14.10;;
36691;SDS011;22678;52.052;4.242;2023-06-22T05:08:53;27.83;;;15.73;;
36691;SDS011;22678;52.052;4.242;2023-06-22T05:11:22;20.65;;;12.98;;
36691;SDS011;22678;52.052;4.242;2023-06-22T05:13:48;25.55;;;15.02;;
36691;SDS011;22678;52.052;4.242;2023-06-22T05:16:13;20.83;;;13.93;;
36691;SDS011;22678;52.052;4.242;2023-06-22T05:18:39;21.02;;;13.75;;
36691;SDS011;22678;52.052;4.242;2023-06-22T05:21:05;22.55;;;13.15;;
36691;SDS011;22678;52.052;4.242;2023-06-22T05:23:31;19.02;;;11.90;;
36691;SDS011;22678;52.052;4.242;2023-06-22T05:25:57;21.98;;;13.07;;
36691;SDS011;22678;52.052;4.242;2023-06-22T05:28:22;22.15;;;12.55;;
36691;SDS011;22678;52.052;4.242;2023-06-22T05:30:48;20.80;;;11.27;;
36691;SDS011;22678;52.052;4.242;2023-06-22T05:33:13;22.13;;;13.35;;
36691;SDS011;22678;52.052;4.242;2023-06-22T05:35:39;19.92;;;12.40;;
36691;SDS011;22678;52.052;4.242;2023-06-22T05:38:04;20.52;;;12.50;;
36691;SDS011;22678;52.052;4.242;2023-06-22T05:40:29;20.08;;;13.25;;
36691;SDS011;22678;52.052;4.242;2023-06-22T05:42:55;19.67;;;11.25;;
36691;SDS011;22678;52.052;4.242;2023-06-22T05:45:20;19.98;;;11.85;;
36691;SDS011;22678;52.052;4.242;2023-06-22T05:47:45;18.75;;;11.65;;
36691;SDS011;22678;52.052;4.242;2023-06-22T05:50:10;18.55;;;10.75;;
36691;SDS011;22678;52.052;4.242;2023-06-22T05:52:36;20.80;;;12.02;;
36691;SDS011;22678;52.052;4.242;2023-06-22T05:55:01;19.65;;;10.73;;
36691;SDS011;22678;52.052;4.242;2023-06-22T05:57:27;21.38;;;11.15;;
36691;SDS011;22678;52.052;4.242;2023-06-22T05:59:52;17.20;;;9.68;;
36691;SDS011;22678;52.052;4.242;2023-06-22T06:02:19;16.95;;;10.00;;
36691;SDS011;22678;52.052;4.242;2023-06-22T06:04:44;16.48;;;10.05;;
36691;SDS011;22678;52.052;4.242;2023-06-22T06:07:09;13.05;;;8.70;;
36691;SDS011;22678;52.052;4.242;2023-06-22T06:09:35;15.65;;;10.13;;
36691;SDS011;22678;52.052;4.242;2023-06-22T06:12:00;16.27;;;10.30;;
36691;SDS011;22678;52.052;4.242;2023-06-22T06:14:27;13.88;;;8.82;;
36691;SDS011;22678;52.052;4.242;2023-06-22T06:16:53;15.60;;;9.35;;
36691;SDS011;22678;52.052;4.242;2023-06-22T06:19:18;14.18;;;7.60;;
36691;SDS011;22678;52.052;4.242;2023-06-22T06:21:43;12.35;;;7.18;;
36691;SDS011;22678;52.052;4.242;2023-06-22T06:24:09;14.65;;;7.80;;
36691;SDS011;22678;52.052;4.242;2023-06-22T06:26:34;13.05;;;5.55;;
36691;SDS011;22678;52.052;4.242;2023-06-22T06:29:00;14.60;;;6.35;;
36691;SDS011;22678;52.052;4.242;2023-06-22T06:31:27;16.98;;;5.45;;
36691;SDS011;22678;52.052;4.242;2023-06-22T06:33:53;10.45;;;5.28;;
36691;SDS011;22678;52.052;4.242;2023-06-22T06:36:19;8.43;;;4.47;;
36691;SDS011;22678;52.052;4.242;2023-06-22T06:38:44;12.85;;;5.25;;
36691;SDS011;22678;52.052;4.242;2023-06-22T06:41:12;9.05;;;4.13;;
36691;SDS011;22678;52.052;4.242;2023-06-22T06:43:37;6.97;;;3.90;;
36691;SDS011;22678;52.052;4.242;2023-06-22T06:46:03;8.38;;;3.97;;
36691;SDS011;22678;52.052;4.242;2023-06-22T06:48:28;6.30;;;2.70;;
36691;SDS011;22678;52.052;4.242;2023-06-22T06:50:53;10.35;;;4.90;;
36691;SDS011;22678;52.052;4.242;2023-06-22T06:53:19;8.73;;;4.85;;
36691;SDS011;22678;52.052;4.242;2023-06-22T06:55:44;6.43;;;4.38;;
36691;SDS011;22678;52.052;4.242;2023-06-22T06:58:10;9.68;;;6.38;;
36691;SDS011;22678;52.052;4.242;2023-06-22T07:00:38;8.48;;;4.55;;
36691;SDS011;22678;52.052;4.242;2023-06-22T07:03:04;9.60;;;5.18;;
36691;SDS011;22678;52.052;4.242;2023-06-22T07:05:29;8.05;;;4.88;;
36691;SDS011;22678;52.052;4.242;2023-06-22T07:07:55;8.18;;;4.43;;
36691;SDS011;22678;52.052;4.242;2023-06-22T07:10:20;10.57;;;5.40;;
36691;SDS011;22678;52.052;4.242;2023-06-22T07:12:46;7.38;;;4.18;;
36691;SDS011;22678;52.052;4.242;2023-06-22T07:15:11;7.57;;;4.50;;
36691;SDS011;22678;52.052;4.242;2023-06-22T07:17:37;11.93;;;4.93;;
36691;SDS011;22678;52.052;4.242;2023-06-22T07:20:06;8.00;;;5.97;;
36691;SDS011;22678;52.052;4.242;2023-06-22T07:22:35;7.85;;;4.75;;
36691;SDS011;22678;52.052;4.242;2023-06-22T07:25:01;6.95;;;3.72;;
36691;SDS011;22678;52.052;4.242;2023-06-22T07:27:29;12.20;;;5.20;;
36691;SDS011;22678;52.052;4.242;2023-06-22T07:30:02;10.07;;;5.68;;
36691;SDS011;22678;52.052;4.242;2023-06-22T07:32:28;9.32;;;6.15;;
36691;SDS011;22678;52.052;4.242;2023-06-22T07:34:54;8.10;;;4.97;;
36691;SDS011;22678;52.052;4.242;2023-06-22T07:37:19;8.68;;;3.63;;
36691;SDS011;22678;52.052;4.242;2023-06-22T07:39:44;5.25;;;2.90;;
36691;SDS011;22678;52.052;4.242;2023-06-22T07:42:10;6.95;;;3.70;;
36691;SDS011;22678;52.052;4.242;2023-06-22T07:44:35;7.65;;;4.15;;
36691;SDS011;22678;52.052;4.242;2023-06-22T07:47:00;5.68;;;2.67;;
36691;SDS011;22678;52.052;4.242;2023-06-22T07:49:27;6.53;;;3.50;;
36691;SDS011;22678;52.052;4.242;2023-06-22T07:51:53;9.82;;;3.28;;
36691;SDS011;22678;52.052;4.242;2023-06-22T07:54:18;9.35;;;4.20;;
36691;SDS011;22678;52.052;4.242;2023-06-22T07:56:43;6.80;;;3.45;;
36691;SDS011;22678;52.052;4.242;2023-06-22T07:59:08;7.43;;;3.83;;
36691;SDS011;22678;52.052;4.242;2023-06-22T08:01:34;6.28;;;3.08;;
36691;SDS011;22678;52.052;4.242;2023-06-22T08:03:59;6.57;;;3.78;;
36691;SDS011;22678;52.052;4.242;2023-06-22T08:06:24;8.23;;;2.95;;
36691;SDS011;22678;52.052;4.242;2023-06-22T08:08:50;5.90;;;2.45;;
36691;SDS011;22678;52.052;4.242;2023-06-22T08:11:17;5.45;;;2.47;;
36691;SDS011;22678;52.052;4.242;2023-06-22T08:13:48;16.13;;;9.20;;
36691;SDS011;22678;52.052;4.242;2023-06-22T08:16:13;24.02;;;10.80;;
36691;SDS011;22678;52.052;4.242;2023-06-22T08:18:38;15.95;;;9.85;;
36691;SDS011;22678;52.052;4.242;2023-06-22T08:21:04;16.00;;;9.57;;
36691;SDS011;22678;52.052;4.242;2023-06-22T08:23:29;14.43;;;8.07;;
36691;SDS011;22678;52.052;4.242;2023-06-22T08:25:54;11.90;;;7.43;;
36691;SDS011;22678;52.052;4.242;2023-06-22T08:28:20;12.70;;;9.20;;
36691;SDS011;22678;52.052;4.242;2023-06-22T08:30:46;11.77;;;6.78;;
36691;SDS011;22678;52.052;4.242;2023-06-22T08:33:11;10.48;;;5.63;;
36691;SDS011;22678;52.052;4.242;2023-06-22T08:35:37;8.48;;;5.78;;
36691;SDS011;22678;52.052;4.242;2023-06-22T08:38:03;6.93;;;3.28;;
36691;SDS011;22678;52.052;4.242;2023-06-22T08:40:28;7.00;;;2.53;;
36691;SDS011;22678;52.052;4.242;2023-06-22T08:42:54;5.45;;;1.90;;
36691;SDS011;22678;52.052;4.242;2023-06-22T08:45:20;3.92;;;1.85;;
36691;SDS011;22678;52.052;4.242;2023-06-22T08:47:45;4.30;;;2.50;;
36691;SDS011;22678;52.052;4.242;2023-06-22T08:50:11;5.50;;;1.85;;
36691;SDS011;22678;52.052;4.242;2023-06-22T08:52:37;10.15;;;4.70;;
36691;SDS011;22678;52.052;4.242;2023-06-22T08:55:06;7.38;;;2.10;;
36691;SDS011;22678;52.052;4.242;2023-06-22T08:57:32;5.97;;;1.17;;
36691;SDS011;22678;52.052;4.242;2023-06-22T08:59:57;6.57;;;2.80;;
36691;SDS011;22678;52.052;4.242;2023-06-22T09:02:24;5.35;;;1.45;;
36691;SDS011;22678;52.052;4.242;2023-06-22T09:04:50;4.80;;;2.17;;
36691;SDS011;22678;52.052;4.242;2023-06-22T09:07:20;2.97;;;1.27;;
36691;SDS011;22678;52.052;4.242;2023-06-22T09:09:47;3.67;;;1.27;;
36691;SDS011;22678;52.052;4.242;2023-06-22T09:12:12;4.28;;;1.30;;
36691;SDS011;22678;52.052;4.242;2023-06-22T09:14:38;4.70;;;1.05;;
36691;SDS011;22678;52.052;4.242;2023-06-22T09:17:03;6.30;;;3.40;;
36691;SDS011;22678;52.052;4.242;2023-06-22T09:19:28;14.57;;;10.00;;
36691;SDS011;22678;52.052;4.242;2023-06-22T09:21:54;14.77;;;8.93;;
36691;SDS011;22678;52.052;4.242;2023-06-22T09:24:19;10.73;;;6.43;;
36691;SDS011;22678;52.052;4.242;2023-06-22T09:26:44;19.25;;;13.20;;
36691;SDS011;22678;52.052;4.242;2023-06-22T09:29:10;17.00;;;10.05;;
36691;SDS011;22678;52.052;4.242;2023-06-22T09:31:35;18.05;;;12.50;;
36691;SDS011;22678;52.052;4.242;2023-06-22T09:34:01;13.85;;;10.43;;
36691;SDS011;22678;52.052;4.242;2023-06-22T09:36:26;14.77;;;8.95;;
36691;SDS011;22678;52.052;4.242;2023-06-22T09:38:51;16.17;;;10.90;;
36691;SDS011;22678;52.052;4.242;2023-06-22T09:41:20;23.75;;;14.45;;
36691;SDS011;22678;52.052;4.242;2023-06-22T09:43:46;19.60;;;13.60;;
36691;SDS011;22678;52.052;4.242;2023-06-22T09:46:14;17.13;;;12.70;;
36691;SDS011;22678;52.052;4.242;2023-06-22T09:48:40;15.93;;;10.98;;
36691;SDS011;22678;52.052;4.242;2023-06-22T09:51:05;20.52;;;10.02;;
36691;SDS011;22678;52.052;4.242;2023-06-22T09:53:30;17.45;;;11.70;;
36691;SDS011;22678;52.052;4.242;2023-06-22T09:55:56;13.65;;;9.05;;
36691;SDS011;22678;52.052;4.242;2023-06-22T09:58:22;16.05;;;11.52;;
36691;SDS011;22678;52.052;4.242;2023-06-22T10:00:47;14.15;;;9.98;;
36691;SDS011;22678;52.052;4.242;2023-06-22T10:03:12;15.48;;;10.80;;
36691;SDS011;22678;52.052;4.242;2023-06-22T10:05:38;12.88;;;8.50;;
36691;SDS011;22678;52.052;4.242;2023-06-22T10:08:03;15.25;;;10.38;;
36691;SDS011;22678;52.052;4.242;2023-06-22T10:10:29;15.43;;;9.95;;
36691;SDS011;22678;52.052;4.242;2023-06-22T10:12:55;14.70;;;9.38;;
36691;SDS011;22678;52.052;4.242;2023-06-22T10:15:22;13.02;;;10.27;;
36691;SDS011;22678;52.052;4.242;2023-06-22T10:17:48;19.20;;;11.15;;
36691;SDS011;22678;52.052;4.242;2023-06-22T10:20:13;18.90;;;12.52;;
36691;SDS011;22678;52.052;4.242;2023-06-22T10:22:39;17.95;;;13.30;;
36691;SDS011;22678;52.052;4.242;2023-06-22T10:25:06;15.07;;;11.93;;
36691;SDS011;22678;52.052;4.242;2023-06-22T10:27:31;18.60;;;11.32;;
36691;SDS011;22678;52.052;4.242;2023-06-22T10:29:57;17.95;;;10.85;;
36691;SDS011;22678;52.052;4.242;2023-06-22T10:32:22;13.30;;;8.43;;
36691;SDS011;22678;52.052;4.242;2023-06-22T10:34:48;14.75;;;9.40;;
36691;SDS011;22678;52.052;4.242;2023-06-22T10:37:13;12.63;;;9.27;;
36691;SDS011;22678;52.052;4.242;2023-06-22T10:39:38;15.65;;;8.93;;
36691;SDS011;22678;52.052;4.242;2023-06-22T10:42:04;14.98;;;10.25;;
36691;SDS011;22678;52.052;4.242;2023-06-22T10:44:29;15.70;;;8.80;;
36691;SDS011;22678;52.052;4.242;2023-06-22T10:46:55;11.05;;;8.50;;
36691;SDS011;22678;52.052;4.242;2023-06-22T10:49:20;22.40;;;10.90;;
36691;SDS011;22678;52.052;4.242;2023-06-22T10:51:45;17.02;;;9.23;;
36691;SDS011;22678;52.052;4.242;2023-06-22T10:54:11;13.30;;;8.48;;
36691;SDS011;22678;52.052;4.242;2023-06-22T10:56:38;12.73;;;9.60;;
36691;SDS011;22678;52.052;4.242;2023-06-22T10:59:04;15.15;;;9.95;;
36691;SDS011;22678;52.052;4.242;2023-06-22T11:01:30;15.18;;;11.23;;
36691;SDS011;22678;52.052;4.242;2023-06-22T11:03:56;11.52;;;8.20;;
36691;SDS011;22678;52.052;4.242;2023-06-22T11:06:22;13.48;;;11.00;;
36691;SDS011;22678;52.052;4.242;2023-06-22T11:08:47;14.13;;;10.27;;
36691;SDS011;22678;52.052;4.242;2023-06-22T11:11:13;13.10;;;10.50;;
36691;SDS011;22678;52.052;4.242;2023-06-22T11:13:38;14.68;;;11.70;;
36691;SDS011;22678;52.052;4.242;2023-06-22T11:16:03;18.45;;;10.82;;
36691;SDS011;22678;52.052;4.242;2023-06-22T11:18:29;15.63;;;11.63;;
36691;SDS011;22678;52.052;4.242;2023-06-22T11:20:58;14.45;;;10.98;;
36691;SDS011;22678;52.052;4.242;2023-06-22T11:23:23;14.63;;;12.93;;
36691;SDS011;22678;52.052;4.242;2023-06-22T11:25:51;14.45;;;12.52;;
36691;SDS011;22678;52.052;4.242;2023-06-22T11:28:16;11.80;;;9.45;;
36691;SDS011;22678;52.052;4.242;2023-06-22T11:30:41;11.85;;;10.45;;
36691;SDS011;22678;52.052;4.242;2023-06-22T11:33:07;13.10;;;10.73;;
36691;SDS011;22678;52.052;4.242;2023-06-22T11:35:32;16.23;;;10.13;;
36691;SDS011;22678;52.052;4.242;2023-06-22T11:37:57;12.40;;;9.73;;
36691;SDS011;22678;52.052;4.242;2023-06-22T11:40:23;9.88;;;8.15;;
36691;SDS011;22678;52.052;4.242;2023-06-22T11:42:48;11.98;;;7.95;;
36691;SDS011;22678;52.052;4.242;2023-06-22T11:45:14;15.45;;;9.60;;
36691;SDS011;22678;52.052;4.242;2023-06-22T11:47:39;13.73;;;9.75;;
36691;SDS011;22678;52.052;4.242;2023-06-22T11:50:05;15.93;;;7.82;;
36691;SDS011;22678;52.052;4.242;2023-06-22T11:52:31;12.73;;;9.25;;
36691;SDS011;22678;52.052;4.242;2023-06-22T11:54:56;13.70;;;8.65;;
36691;SDS011;22678;52.052;4.242;2023-06-22T11:57:24;10.55;;;8.35;;
36691;SDS011;22678;52.052;4.242;2023-06-22T11:59:49;10.75;;;7.53;;
36691;SDS011;22678;52.052;4.242;2023-06-22T12:02:14;11.73;;;8.20;;
36691;SDS011;22678;52.052;4.242;2023-06-22T12:04:40;12.90;;;9.43;;
36691;SDS011;22678;52.052;4.242;2023-06-22T12:07:05;17.38;;;10.18;;
36691;SDS011;22678;52.052;4.242;2023-06-22T12:09:30;15.52;;;9.23;;
36691;SDS011;22678;52.052;4.242;2023-06-22T12:11:56;18.05;;;10.45;;
36691;SDS011;22678;52.052;4.242;2023-06-22T12:14:21;15.73;;;10.60;;
36691;SDS011;22678;52.052;4.242;2023-06-22T12:16:46;19.05;;;12.10;;
36691;SDS011;22678;52.052;4.242;2023-06-22T12:19:12;15.65;;;11.13;;
36691;SDS011;22678;52.052;4.242;2023-06-22T12:21:37;14.50;;;9.90;;
36691;SDS011;22678;52.052;4.242;2023-06-22T12:24:04;17.67;;;12.05;;
36691;SDS011;22678;52.052;4.242;2023-06-22T12:26:29;14.20;;;10.30;;
36691;SDS011;22678;52.052;4.242;2023-06-22T12:28:55;17.40;;;11.43;;
36691;SDS011;22678;52.052;4.242;2023-06-22T12:31:20;13.45;;;11.32;;
36691;SDS011;22678;52.052;4.242;2023-06-22T12:33:45;15.38;;;11.50;;
36691;SDS011;22678;52.052;4.242;2023-06-22T12:36:10;16.75;;;11.45;;
36691;SDS011;22678;52.052;4.242;2023-06-22T12:38:36;17.08;;;12.55;;
36691;SDS011;22678;52.052;4.242;2023-06-22T12:41:01;12.20;;;10.05;;
36691;SDS011;22678;52.052;4.242;2023-06-22T12:43:27;16.25;;;12.25;;
36691;SDS011;22678;52.052;4.242;2023-06-22T12:45:52;15.25;;;12.18;;
36691;SDS011;22678;52.052;4.242;2023-06-22T12:48:18;13.98;;;11.02;;
36691;SDS011;22678;52.052;4.242;2023-06-22T12:50:44;14.40;;;9.73;;
36691;SDS011;22678;52.052;4.242;2023-06-22T12:53:09;15.32;;;11.60;;
36691;SDS011;22678;52.052;4.242;2023-06-22T12:55:34;12.18;;;9.77;;
36691;SDS011;22678;52.052;4.242;2023-06-22T12:58:00;13.45;;;10.25;;
36691;SDS011;22678;52.052;4.242;2023-06-22T13:00:25;13.13;;;9.25;;
36691;SDS011;22678;52.052;4.242;2023-06-22T13:02:50;11.70;;;8.00;;
36691;SDS011;22678;52.052;4.242;2023-06-22T13:05:16;10.77;;;7.28;;
36691;SDS011;22678;52.052;4.242;2023-06-22T13:07:41;13.20;;;10.05;;
36691;SDS011;22678;52.052;4.242;2023-06-22T13:10:07;12.45;;;8.60;;
36691;SDS011;22678;52.052;4.242;2023-06-22T13:12:33;14.10;;;8.23;;
36691;SDS011;22678;52.052;4.242;2023-06-22T13:14:59;14.20;;;9.10;;
36691;SDS011;22678;52.052;4.242;2023-06-22T13:17:24;16.05;;;8.77;;
36691;SDS011;22678;52.052;4.242;2023-06-22T13:19:49;14.30;;;8.38;;
36691;SDS011;22678;52.052;4.242;2023-06-22T13:22:26;12.93;;;8.70;;
36691;SDS011;22678;52.052;4.242;2023-06-22T13:24:55;13.82;;;7.78;;
36691;SDS011;22678;52.052;4.242;2023-06-22T13:27:21;10.80;;;7.35;;
36691;SDS011;22678;52.052;4.242;2023-06-22T13:29:47;12.57;;;9.85;;
36691;SDS011;22678;52.052;4.242;2023-06-22T13:32:12;13.65;;;9.43;;
36691;SDS011;22678;52.052;4.242;2023-06-22T13:34:37;10.50;;;7.60;;
36691;SDS011;22678;52.052;4.242;2023-06-22T13:37:03;13.23;;;8.57;;
36691;SDS011;22678;52.052;4.242;2023-06-22T13:39:29;10.65;;;8.07;;
36691;SDS011;22678;52.052;4.242;2023-06-22T13:41:54;16.45;;;10.27;;
36691;SDS011;22678;52.052;4.242;2023-06-22T13:44:19;11.45;;;7.50;;
36691;SDS011;22678;52.052;4.242;2023-06-22T13:46:47;15.45;;;9.30;;
36691;SDS011;22678;52.052;4.242;2023-06-22T13:49:12;15.60;;;7.88;;
36691;SDS011;22678;52.052;4.242;2023-06-22T13:51:37;14.30;;;9.73;;
36691;SDS011;22678;52.052;4.242;2023-06-22T13:54:03;12.80;;;8.98;;
36691;SDS011;22678;52.052;4.242;2023-06-22T13:56:28;13.93;;;8.75;;
36691;SDS011;22678;52.052;4.242;2023-06-22T13:58:53;9.13;;;6.90;;
36691;SDS011;22678;52.052;4.242;2023-06-22T14:01:19;15.70;;;8.93;;
36691;SDS011;22678;52.052;4.242;2023-06-22T14:03:44;10.02;;;5.78;;
36691;SDS011;22678;52.052;4.242;2023-06-22T14:06:11;9.20;;;6.10;;
36691;SDS011;22678;52.052;4.242;2023-06-22T14:08:37;12.48;;;6.82;;
36691;SDS011;22678;52.052;4.242;2023-06-22T14:11:02;12.05;;;7.97;;
36691;SDS011;22678;52.052;4.242;2023-06-22T14:13:28;9.25;;;6.45;;
36691;SDS011;22678;52.052;4.242;2023-06-22T14:15:53;11.55;;;6.47;;
36691;SDS011;22678;52.052;4.242;2023-06-22T14:18:19;11.75;;;8.25;;
36691;SDS011;22678;52.052;4.242;2023-06-22T14:20:44;9.55;;;6.43;;
36691;SDS011;22678;52.052;4.242;2023-06-22T14:23:10;8.23;;;5.72;;
36691;SDS011;22678;52.052;4.242;2023-06-22T14:25:35;8.88;;;5.78;;
36691;SDS011;22678;52.052;4.242;2023-06-22T14:28:00;14.35;;;7.15;;